Time;durP1;ratioP1;P1;durP2;ratioP2;P2;SDS_P1;SDS_P2;PMS_P1;PMS_P2;Temp;Humidity;BMP_temperature;BMP_pressure;BME280_temperature;BME280_humidity;BME280_pressure;Samples;Min_cycle;Max_cycle;Signal;HPM_P1;HPM_P2
2023/02/26 00:01:21;;;;;;;72.03;44.58;;;;;;;9.00;100.00;99062.78;5008624;28;20074;-75
2023/02/26 00:03:55;;;;;;;67.95;41.03;;;;;;;8.36;100.00;98966.97;5007046;28;20057;-76
2023/02/26 00:06:22;;;;;;;65.20;44.63;;;;;;;8.41;100.00;98968.66;5008979;28;20042;-76
2023/02/26 00:08:48;;;;;;;68.88;40.67;;;;;;;8.40;100.00;98961.69;5005954;28;20061;-75
2023/02/26 00:11:14;;;;;;;67.68;40.63;;;;;;;8.39;100.00;98962.53;5008261;28;20053;-75
2023/02/26 00:13:42;;;;;;;65.60;39.58;;;;;;;8.48;100.00;98965.97;5009008;28;20046;-75
2023/02/26 00:16:29;;;;;;;63.53;40.45;;;;;;;8.50;100.00;98965.03;5008501;28;20060;-76
2023/02/26 00:18:57;;;;;;;65.30;42.03;;;;;;;9.12;100.00;99084.41;5004234;28;20054;-76
2023/02/26 00:21:24;;;;;;;59.55;39.88;;;;;;;8.46;100.00;98971.19;4988419;28;20344;-76
2023/02/26 00:23:51;;;;;;;55.40;38.67;;;;;;;8.43;100.00;98945.97;4989229;28;20068;-77
2023/02/26 00:26:16;;;;;;;65.07;38.17;;;;;;;8.42;100.00;98936.38;4985141;28;20050;-75
2023/02/26 00:28:42;;;;;;;52.63;39.95;;;;;;;8.36;100.00;98935.59;4983047;28;20065;-76
2023/02/26 00:31:09;;;;;;;56.35;38.58;;;;;;;8.96;100.00;99034.91;4986040;28;20081;-75
2023/02/26 00:33:34;;;;;;;62.38;39.00;;;;;;;9.05;100.00;99045.25;4987886;28;20046;-77
2023/02/26 00:36:16;;;;;;;58.78;38.58;;;;;;;8.78;100.00;99004.72;4989454;28;20038;-78
2023/02/26 00:38:46;;;;;;;48.38;35.17;;;;;;;8.70;100.00;98971.72;4985796;28;20471;-76
2023/02/26 00:41:14;;;;;;;58.75;37.88;;;;;;;9.34;100.00;99069.22;4983852;28;20137;-74
2023/02/26 00:43:40;;;;;;;59.90;38.45;;;;;;;9.26;100.00;99062.34;4988781;28;20160;-74
2023/02/26 00:46:26;;;;;;;50.83;36.28;;;;;;;9.38;100.00;99090.06;4980894;28;20790;-74
2023/02/26 00:49:01;;;;;;;62.95;39.20;;;;;;;9.17;100.00;99036.31;4986912;28;20532;-76
2023/02/26 00:51:30;;;;;;;57.33;35.60;;;;;;;9.30;100.00;99071.03;4988268;28;20054;-75
2023/02/26 00:54:10;;;;;;;52.42;38.88;;;;;;;8.58;100.00;98941.38;4985875;28;20076;-75
2023/02/26 00:56:36;;;;;;;70.45;41.60;;;;;;;8.40;100.00;98930.31;4985911;28;20101;-75
2023/02/26 00:59:02;;;;;;;63.22;37.33;;;;;;;9.06;100.00;99025.16;4986070;28;20034;-74
2023/02/26 01:01:27;;;;;;;57.63;40.63;;;;;;;8.56;100.00;98917.00;4985296;28;20069;-74
2023/02/26 01:03:54;;;;;;;62.13;40.60;;;;;;;8.42;100.00;98898.94;4984610;28;20065;-75
2023/02/26 01:06:20;;;;;;;65.47;40.03;;;;;;;8.97;100.00;98983.50;4988287;28;20085;-74
2023/02/26 01:08:46;;;;;;;61.90;42.03;;;;;;;9.29;100.00;99040.50;4984934;28;20667;-74
2023/02/26 01:11:12;;;;;;;59.80;43.20;;;;;;;8.58;100.00;98926.56;4984118;28;20054;-74
2023/02/26 01:13:37;;;;;;;73.05;47.67;;;;;;;9.23;100.00;99035.38;4986481;28;20061;-74
2023/02/26 01:16:10;;;;;;;84.28;51.55;;;;;;;9.02;100.00;98994.72;4984541;28;20042;-74
2023/02/26 01:18:45;;;;;;;74.68;52.95;;;;;;;9.07;100.00;99012.06;4985123;28;20082;-75
2023/02/26 01:21:18;;;;;;;75.47;52.72;;;;;;;8.54;100.00;98916.16;4983561;28;20038;-75
2023/02/26 01:23:49;;;;;;;75.13;52.75;;;;;;;8.94;100.00;98989.59;4984968;28;20077;-76
2023/02/26 01:26:21;;;;;;;78.22;51.45;;;;;;;8.57;100.00;98922.22;4982058;28;20574;-76
2023/02/26 01:28:47;;;;;;;104.05;56.92;;;;;;;9.34;100.00;99053.50;4980453;28;20046;-76
2023/02/26 01:31:50;;;;;;;87.65;62.30;;;;;;;9.32;100.00;99056.16;4987265;28;20104;-75
2023/02/26 01:34:25;;;;;;;96.50;67.25;;;;;;;9.06;100.00;99028.66;4984776;28;20137;-77
2023/02/26 01:37:01;;;;;;;98.22;66.18;;;;;;;8.76;100.00;98979.47;4983378;28;20479;-77
2023/02/26 01:39:30;;;;;;;93.22;68.75;;;;;;;8.49;100.00;98939.78;4981905;28;20375;-76
2023/02/26 01:42:08;;;;;;;105.57;69.78;;;;;;;9.21;100.00;99085.13;4981514;28;20043;-76
2023/02/26 01:44:33;;;;;;;115.38;78.05;;;;;;;9.25;100.00;99071.09;4986968;28;20042;-76
2023/02/26 01:47:08;;;;;;;104.93;74.63;;;;;;;9.35;100.00;99077.03;4986316;28;20058;-77
2023/02/26 01:49:34;;;;;;;106.95;72.03;;;;;;;9.31;100.00;99067.50;4977437;28;20058;-77
2023/02/26 01:52:04;;;;;;;107.18;76.20;;;;;;;9.32;100.00;99066.63;4984775;28;20050;-77
2023/02/26 01:54:33;;;;;;;101.90;72.93;;;;;;;8.85;100.00;98971.47;4983836;28;20057;-78
2023/02/26 01:57:04;;;;;;;98.80;73.35;;;;;;;9.28;100.00;99052.72;4988761;28;20034;-75
2023/02/26 01:59:31;;;;;;;103.40;75.47;;;;;;;8.51;100.00;98934.53;4986795;28;20065;-76
2023/02/26 02:01:59;;;;;;;102.68;74.55;;;;;;;9.06;100.00;99023.44;4978916;28;20374;-75
2023/02/26 02:04:25;;;;;;;98.82;69.35;;;;;;;8.85;100.00;98977.56;4976076;28;20045;-75
2023/02/26 02:06:52;;;;;;;109.50;71.85;;;;;;;9.17;100.00;99031.09;4987790;28;20050;-75
2023/02/26 02:09:18;;;;;;;101.90;73.57;;;;;;;9.30;100.00;99044.84;4982553;28;20038;-76
2023/02/26 02:12:07;;;;;;;98.43;70.30;;;;;;;9.37;100.00;99053.47;4984590;28;20061;-75
2023/02/26 02:14:44;;;;;;;98.03;68.63;;;;;;;9.36;100.00;99041.25;4981275;28;20058;-76
2023/02/26 02:17:37;;;;;;;88.78;63.88;;;;;;;9.38;100.00;99047.34;4983142;28;20054;-75
2023/02/26 02:20:26;;;;;;;95.07;63.38;;;;;;;9.38;100.00;99048.19;4977389;28;20176;-75
2023/02/26 02:23:18;;;;;;;82.80;58.90;;;;;;;9.37;100.00;99038.63;4973470;28;20419;-75
2023/02/26 02:26:14;;;;;;;93.25;62.85;;;;;;;9.25;100.00;99052.78;4978944;28;20090;-76
2023/02/26 02:29:01;;;;;;;98.47;63.63;;;;;;;9.36;100.00;99063.06;4975243;28;20081;-76
2023/02/26 02:31:42;;;;;;;76.95;58.58;;;;;;;9.25;100.00;99065.00;4980522;28;20058;-75
2023/02/26 02:34:42;;;;;;;102.13;55.80;;;;;;;8.53;100.00;98911.84;4983714;28;20509;-76
2023/02/26 02:37:16;;;;;;;79.50;57.95;;;;;;;7.82;100.00;98842.34;4972610;28;20054;-77
2023/02/26 02:39:48;;;;;;;89.45;59.50;;;;;;;9.29;100.00;99067.56;4982983;28;20049;-76
2023/02/26 02:42:41;;;;;;;85.30;60.05;;;;;;;8.78;100.00;99020.41;4972527;28;20045;-76
2023/02/26 02:45:18;;;;;;;91.97;62.23;;;;;;;8.79;100.00;99047.41;4986458;28;20050;-76
2023/02/26 02:47:49;;;;;;;92.68;69.53;;;;;;;8.72;100.00;99024.84;4985719;28;20638;-76
2023/02/26 02:50:31;;;;;;;88.45;63.42;;;;;;;8.83;100.00;99025.56;4986916;28;20055;-76
2023/02/26 02:53:03;;;;;;;73.20;53.90;;;;;;;8.87;100.00;99035.94;4987442;28;20046;-76
2023/02/26 02:56:03;;;;;;;75.72;51.03;;;;;;;9.06;100.00;99052.22;4987266;28;20057;-77
2023/02/26 02:58:33;;;;;;;73.47;53.75;;;;;;;8.16;100.00;98921.06;4986818;28;20100;-76
2023/02/26 03:01:01;;;;;;;81.20;54.50;;;;;;;9.00;100.00;99040.97;4979959;28;20059;-74
2023/02/26 03:03:47;;;;;;;75.53;55.08;;;;;;;8.45;100.00;98951.16;4983547;28;20038;-74
2023/02/26 03:06:13;;;;;;;80.40;52.95;;;;;;;8.10;100.00;98926.38;4968954;28;20498;-76
2023/02/26 03:08:40;;;;;;;79.53;54.33;;;;;;;8.51;100.00;98971.13;4984868;28;20042;-75
2023/02/26 03:11:07;;;;;;;77.43;52.97;;;;;;;8.09;100.00;98915.94;4985675;28;20097;-78
2023/02/26 03:13:33;;;;;;;64.32;43.88;;;;;;;8.62;100.00;99048.50;4984569;28;20174;-75
2023/02/26 03:16:24;;;;;;;68.50;45.42;;;;;;;8.64;100.00;99049.38;4983448;28;20070;-75
2023/02/26 03:19:13;;;;;;;61.28;42.03;;;;;;;7.95;100.00;98918.75;4982888;28;20086;-78
2023/02/26 03:21:54;;;;;;;67.80;44.75;;;;;;;8.90;100.00;99055.97;4984195;28;20498;-77
2023/02/26 03:24:29;;;;;;;54.65;39.63;;;;;;;8.86;100.00;99051.66;4985557;28;20030;-76
2023/02/26 03:27:06;;;;;;;66.03;40.90;;;;;;;8.51;100.00;99020.78;4979006;28;20567;-77
2023/02/26 03:29:58;;;;;;;63.30;43.03;;;;;;;8.60;100.00;99044.19;4983938;28;20054;-77
2023/02/26 03:33:05;;;;;;;57.45;39.92;;;;;;;8.56;100.00;99032.91;4981145;28;20688;-77
2023/02/26 03:35:49;;;;;;;66.55;43.25;;;;;;;8.61;100.00;99025.00;4985661;28;20471;-75
2023/02/26 03:38:35;;;;;;;63.85;36.95;;;;;;;8.86;100.00;99030.72;4985466;28;20418;-77
2023/02/26 03:41:12;;;;;;;54.45;37.22;;;;;;;8.65;100.00;99006.63;4977290;28;20046;-77
2023/02/26 03:43:46;;;;;;;53.38;36.78;;;;;;;8.73;100.00;99010.88;4988140;28;20053;-77
2023/02/26 03:46:20;;;;;;;52.25;36.15;;;;;;;8.01;100.00;98903.88;4981950;28;20050;-76
2023/02/26 03:48:50;;;;;;;56.65;38.67;;;;;;;8.14;100.00;98911.53;4988801;28;20061;-76
2023/02/26 03:51:18;;;;;;;65.75;38.05;;;;;;;8.80;100.00;99000.31;4990339;28;20050;-76
2023/02/26 03:53:53;;;;;;;56.30;38.25;;;;;;;8.45;100.00;98991.25;5008678;28;20057;-76
2023/02/26 03:56:33;;;;;;;57.58;41.05;;;;;;;8.45;100.00;99006.94;5009251;28;20054;-76
2023/02/26 03:58:59;;;;;;;62.25;39.97;;;;;;;8.59;100.00;98979.69;5005292;28;20053;-76
2023/02/26 04:01:31;;;;;;;49.83;37.88;;;;;;;8.51;100.00;98943.22;5009327;28;20553;-75
2023/02/26 04:04:10;;;;;;;68.40;41.17;;;;;;;8.56;100.00;98988.47;5009393;28;20062;-74
2023/02/26 04:06:36;;;;;;;70.35;48.50;;;;;;;7.46;100.00;98857.59;5009234;28;20041;-76
2023/02/26 04:09:03;;;;;;;72.05;45.33;;;;;;;8.27;100.00;98974.94;5009637;28;20038;-74
2023/02/26 04:11:29;;;;;;;66.40;43.92;;;;;;;7.97;100.00;98962.25;5006545;28;20052;-74
2023/02/26 04:13:55;;;;;;;79.30;47.55;;;;;;;8.11;100.00;98959.47;5003880;28;20108;-77
2023/02/26 04:16:21;;;;;;;69.63;46.58;;;;;;;7.39;100.00;98863.78;5007947;28;20510;-75
2023/02/26 04:18:46;;;;;;;62.97;44.42;;;;;;;7.94;100.00;98937.94;5008645;28;20054;-74
2023/02/26 04:21:14;;;;;;;66.70;45.33;;;;;;;8.12;100.00;98937.66;5006962;28;20096;-74
2023/02/26 04:23:40;;;;;;;73.10;45.17;;;;;;;7.46;100.00;98843.69;5002595;28;20387;-74
2023/02/26 04:26:06;;;;;;;60.05;43.10;;;;;;;8.27;100.00;98956.66;5004557;28;20120;-75
2023/02/26 04:28:32;;;;;;;61.38;43.42;;;;;;;7.57;100.00;98858.31;5004523;28;20108;-74
2023/02/26 04:30:58;;;;;;;60.65;45.13;;;;;;;7.55;100.00;98867.06;5006647;28;20057;-76
2023/02/26 04:33:25;;;;;;;74.57;42.75;;;;;;;7.81;100.00;98853.66;5002139;28;20038;-75
2023/02/26 04:35:51;;;;;;;65.35;47.20;;;;;;;7.68;100.00;98839.03;5006959;28;20069;-77
2023/02/26 04:38:16;;;;;;;75.82;44.75;;;;;;;7.51;100.00;98823.59;5005919;28;20188;-75
2023/02/26 04:40:42;;;;;;;60.85;44.80;;;;;;;7.61;100.00;98823.47;5006939;28;20115;-74
2023/02/26 04:43:08;;;;;;;61.90;45.33;;;;;;;8.28;100.00;98940.06;5005317;28;20045;-78
2023/02/26 04:45:33;;;;;;;69.40;44.10;;;;;;;7.66;100.00;98844.28;4999524;28;20038;-74
2023/02/26 04:47:59;;;;;;;66.43;48.38;;;;;;;8.17;100.00;98930.66;5008076;28;20483;-78
2023/02/26 04:50:24;;;;;;;68.85;44.35;;;;;;;7.97;100.00;98902.19;5007825;28;20054;-76
2023/02/26 04:52:50;;;;;;;62.75;38.65;;;;;;;8.19;100.00;98894.91;5003307;28;20069;-76
2023/02/26 04:55:15;;;;;;;59.05;41.63;;;;;;;8.33;100.00;98918.19;4995367;28;20136;-76
2023/02/26 04:57:41;;;;;;;62.85;42.50;;;;;;;8.29;100.00;98889.50;5006115;28;20606;-75
2023/02/26 05:00:07;;;;;;;62.70;41.67;;;;;;;8.50;100.00;98935.41;5005847;28;20425;-76
2023/02/26 05:02:33;;;;;;;58.50;40.28;;;;;;;8.70;100.00;98969.94;5005267;28;20104;-75
2023/02/26 05:04:58;;;;;;;59.90;43.20;;;;;;;8.57;100.00;98947.47;5006099;28;20417;-75
2023/02/26 05:07:24;;;;;;;70.88;42.85;;;;;;;8.56;100.00;98951.00;5004418;28;20049;-75
2023/02/26 05:09:49;;;;;;;60.72;38.05;;;;;;;8.69;100.00;98986.53;5001656;28;20054;-75
2023/02/26 05:12:15;;;;;;;57.30;36.00;;;;;;;8.61;100.00;98984.03;4978002;28;20086;-76
2023/02/26 05:14:41;;;;;;;54.72;37.38;;;;;;;8.79;100.00;99006.41;4984064;28;20053;-75
2023/02/26 05:17:06;;;;;;;58.38;38.60;;;;;;;8.24;100.00;98911.38;4984806;28;20057;-76
2023/02/26 05:19:32;;;;;;;50.45;39.15;;;;;;;8.54;100.00;98979.78;4986405;28;20058;-77
2023/02/26 05:21:57;;;;;;;56.10;35.55;;;;;;;8.48;100.00;98977.28;4986274;28;20633;-76
2023/02/26 05:24:23;;;;;;;48.92;36.63;;;;;;;8.72;100.00;99014.38;4986296;28;20034;-75
2023/02/26 05:26:48;;;;;;;56.13;35.55;;;;;;;8.47;100.00;98961.59;4978363;28;20069;-76
2023/02/26 05:29:14;;;;;;;69.78;45.22;;;;;;;7.39;100.00;98895.94;4983682;28;20054;-76
2023/02/26 05:31:39;;;;;;;64.85;42.60;;;;;;;7.60;100.00;98943.56;4984162;28;20062;-76
2023/02/26 05:34:05;;;;;;;71.30;46.45;;;;;;;7.97;100.00;98972.69;4982892;28;20054;-76
2023/02/26 05:36:30;;;;;;;68.35;45.03;;;;;;;7.92;100.00;99018.03;4985167;28;20100;-76
2023/02/26 05:38:56;;;;;;;66.70;40.95;;;;;;;8.23;100.00;99013.28;4987335;28;20513;-75
2023/02/26 05:41:21;;;;;;;67.75;44.90;;;;;;;8.08;100.00;99005.63;4987912;28;20426;-74
2023/02/26 05:43:47;;;;;;;68.68;44.60;;;;;;;8.04;100.00;98981.31;4987746;28;20172;-75
2023/02/26 05:46:13;;;;;;;64.93;44.22;;;;;;;8.29;100.00;99018.44;4976718;28;20058;-76
2023/02/26 05:48:38;;;;;;;78.50;46.58;;;;;;;7.40;100.00;98855.09;4987139;28;20509;-77
2023/02/26 05:51:04;;;;;;;66.60;42.70;;;;;;;7.79;100.00;98907.63;4983161;28;20054;-76
2023/02/26 05:53:29;;;;;;;64.25;42.95;;;;;;;8.37;100.00;98984.38;4984509;28;20402;-75
2023/02/26 05:55:55;;;;;;;71.10;42.85;;;;;;;8.59;100.00;99022.44;4984434;28;20046;-75
2023/02/26 05:58:21;;;;;;;64.00;41.95;;;;;;;8.18;100.00;98944.56;4980402;28;20084;-75
2023/02/26 06:00:46;;;;;;;70.65;40.35;;;;;;;8.63;100.00;99038.91;4980841;28;20376;-77
2023/02/26 06:03:12;;;;;;;59.17;36.05;;;;;;;8.53;100.00;99019.03;4985805;28;20125;-76
2023/02/26 06:05:38;;;;;;;54.50;40.22;;;;;;;7.96;100.00;98930.91;4983885;28;20093;-76
2023/02/26 06:08:04;;;;;;;58.88;37.75;;;;;;;8.56;100.00;99064.28;4984376;28;20054;-77
2023/02/26 06:10:30;;;;;;;62.10;41.85;;;;;;;8.54;100.00;99063.44;4986380;28;20141;-76
2023/02/26 06:12:56;;;;;;;53.55;37.13;;;;;;;7.88;100.00;98940.63;4982985;28;20053;-75
2023/02/26 06:15:22;;;;;;;58.28;39.20;;;;;;;8.40;100.00;99045.31;4976105;28;20081;-77
2023/02/26 06:17:48;;;;;;;74.25;41.47;;;;;;;8.65;100.00;99081.59;4976911;28;20054;-79
2023/02/26 06:20:13;;;;;;;53.53;38.03;;;;;;;8.18;100.00;98979.38;4967528;28;20050;-73
2023/02/26 06:22:39;;;;;;;65.05;38.80;;;;;;;8.85;100.00;99092.66;4980645;28;20053;-73
2023/02/26 06:25:05;;;;;;;57.15;38.30;;;;;;;8.26;100.00;98987.13;4981532;28;20454;-74
2023/02/26 06:27:31;;;;;;;61.33;38.40;;;;;;;8.46;100.00;99028.69;4979885;28;20117;-76
2023/02/26 06:29:56;;;;;;;50.53;35.70;;;;;;;8.93;100.00;99110.00;4984175;28;20042;-74
2023/02/26 06:32:22;;;;;;;61.88;41.83;;;;;;;8.04;100.00;99030.94;4986140;28;20108;-74
2023/02/26 06:34:47;;;;;;;60.80;40.08;;;;;;;8.44;100.00;99087.97;4986429;28;20112;-74
2023/02/26 06:37:13;;;;;;;70.72;46.97;;;;;;;8.61;100.00;99135.66;4980820;28;20035;-74
2023/02/26 06:39:38;;;;;;;65.57;43.78;;;;;;;8.85;100.00;99150.19;4977081;28;20039;-75
2023/02/26 06:42:04;;;;;;;60.70;41.00;;;;;;;8.63;100.00;99081.59;4975058;28;20046;-74
2023/02/26 06:44:29;;;;;;;56.70;42.03;;;;;;;8.01;100.00;99018.78;4979700;28;20042;-74
2023/02/26 06:46:55;;;;;;;58.22;42.20;;;;;;;8.61;100.00;99124.34;4978284;28;20447;-72
2023/02/26 06:49:20;;;;;;;62.20;40.40;;;;;;;8.40;100.00;99089.75;4976380;28;20065;-74
2023/02/26 06:51:46;;;;;;;62.60;40.88;;;;;;;8.56;100.00;99124.41;4969459;28;20046;-74
2023/02/26 06:54:11;;;;;;;62.38;37.40;;;;;;;8.05;100.00;98996.09;4979488;28;20097;-73
2023/02/26 06:56:37;;;;;;;59.42;41.13;;;;;;;8.18;100.00;98987.22;4974053;28;20528;-73
2023/02/26 06:59:02;;;;;;;56.42;39.60;;;;;;;8.70;100.00;99105.06;4978518;28;20042;-74
2023/02/26 07:01:28;;;;;;;61.58;40.97;;;;;;;8.16;100.00;99036.03;4995422;28;20073;-74
2023/02/26 07:03:53;;;;;;;63.13;39.95;;;;;;;8.60;100.00;99113.03;5002766;28;20475;-74
2023/02/26 07:06:19;;;;;;;49.80;39.08;;;;;;;8.64;100.00;99125.19;4977561;28;20069;-73
2023/02/26 07:08:44;;;;;;;64.95;43.22;;;;;;;7.68;100.00;99011.34;4982289;28;20054;-73
2023/02/26 07:11:10;;;;;;;59.13;41.97;;;;;;;8.36;100.00;99102.88;4982935;28;20549;-75
2023/02/26 07:13:36;;;;;;;63.70;43.95;;;;;;;8.33;100.00;99105.50;4983460;28;20064;-73
2023/02/26 07:16:06;;;;;;;65.53;44.05;;;;;;;8.51;100.00;99120.13;4985535;28;20073;-74
2023/02/26 07:18:35;;;;;;;68.38;42.53;;;;;;;8.60;100.00;99126.09;4983410;28;20149;-73
2023/02/26 07:21:01;;;;;;;66.20;43.38;;;;;;;8.40;100.00;99122.88;5009899;28;20026;-73
2023/02/26 07:23:27;;;;;;;75.70;44.88;;;;;;;8.29;100.00;99114.25;5008729;28;20528;-74
2023/02/26 07:25:52;;;;;;;55.50;40.58;;;;;;;8.22;100.00;99076.91;4994834;28;20069;-74
2023/02/26 07:28:19;;;;;;;62.08;43.17;;;;;;;7.66;100.00;98977.44;5000834;28;20050;-74
2023/02/26 07:30:45;;;;;;;63.92;41.17;;;;;;;8.30;100.00;99111.63;5010463;28;20046;-73
2023/02/26 07:33:10;;;;;;;58.33;42.45;;;;;;;7.74;100.00;98979.94;5000291;28;20045;-73
2023/02/26 07:35:36;;;;;;;79.65;46.25;;;;;;;8.25;100.00;99093.41;4988735;28;20070;-74
2023/02/26 07:38:01;;;;;;;74.13;47.28;;;;;;;8.31;100.00;99084.63;5009379;28;20347;-74
2023/02/26 07:40:27;;;;;;;73.07;46.80;;;;;;;7.75;100.00;98986.88;4994931;28;20054;-73
2023/02/26 07:42:52;;;;;;;66.10;45.08;;;;;;;7.92;100.00;99010.22;4979828;28;20117;-72
2023/02/26 07:45:21;;;;;;;66.78;46.55;;;;;;;8.21;100.00;99062.09;4980358;28;20094;-74
2023/02/26 07:47:47;;;;;;;79.78;47.00;;;;;;;8.30;100.00;99056.75;4989763;28;20038;-75
2023/02/26 07:50:13;;;;;;;65.22;44.10;;;;;;;8.54;100.00;99097.41;5001492;28;20153;-74
2023/02/26 07:52:39;;;;;;;69.30;43.85;;;;;;;8.70;100.00;99111.16;5009635;28;20136;-72
2023/02/26 07:55:04;;;;;;;74.05;45.50;;;;;;;8.90;100.00;99137.06;4996468;28;20038;-74
2023/02/26 07:57:30;;;;;;;73.50;50.28;;;;;;;8.80;100.00;99143.28;4990046;28;20045;-75
2023/02/26 07:59:55;;;;;;;66.68;46.92;;;;;;;8.84;100.00;99127.53;4997418;28;20045;-73
2023/02/26 08:02:22;;;;;;;62.28;44.25;;;;;;;8.86;100.00;99117.91;5003503;28;20196;-74
2023/02/26 08:04:48;;;;;;;73.53;48.80;;;;;;;8.18;100.00;99013.34;5003723;28;20184;-74
2023/02/26 08:07:13;;;;;;;73.40;45.58;;;;;;;8.27;100.00;99003.69;5003241;28;20062;-74
2023/02/26 08:09:39;;;;;;;80.03;48.95;;;;;;;9.01;100.00;99137.78;4998783;28;20042;-75
2023/02/26 08:12:04;;;;;;;72.43;44.97;;;;;;;9.06;100.00;99148.16;5007040;28;20426;-73
2023/02/26 08:14:30;;;;;;;65.28;45.38;;;;;;;8.18;100.00;99002.03;4991807;28;20870;-73
2023/02/26 08:16:55;;;;;;;61.95;44.83;;;;;;;8.93;100.00;99123.94;4976344;28;20058;-73
2023/02/26 08:19:21;;;;;;;65.32;43.20;;;;;;;9.19;100.00;99149.72;4978042;28;20236;-73
2023/02/26 08:21:47;;;;;;;64.57;44.97;;;;;;;9.20;100.00;99150.56;4985923;28;20129;-73
2023/02/26 08:24:12;;;;;;;65.95;45.40;;;;;;;9.26;100.00;99134.78;4973404;28;20126;-74
2023/02/26 08:26:38;;;;;;;71.57;43.15;;;;;;;9.32;100.00;99124.22;4979489;28;20114;-74
2023/02/26 08:29:04;;;;;;;75.25;52.17;;;;;;;9.23;100.00;99116.50;4979337;28;20895;-73
2023/02/26 08:31:30;;;;;;;67.68;48.10;;;;;;;9.08;100.00;99045.22;4986658;28;20042;-76
2023/02/26 08:33:57;;;;;;;69.20;45.72;;;;;;;9.42;100.00;99144.13;4983786;28;20181;-75
2023/02/26 08:36:23;;;;;;;72.22;45.55;;;;;;;9.43;100.00;99155.44;4980463;28;20045;-75
2023/02/26 08:38:49;;;;;;;70.95;46.17;;;;;;;9.50;100.00;99167.56;4985567;28;20053;-73
2023/02/26 08:41:14;;;;;;;65.07;44.22;;;;;;;9.89;100.00;99162.56;4980809;28;20054;-73
2023/02/26 08:43:39;;;;;;;73.72;49.13;;;;;;;9.39;100.00;99083.06;4983886;28;20046;-73
2023/02/26 08:46:05;;;;;;;62.38;45.88;;;;;;;9.97;100.00;99181.63;4985360;28;20047;-75
2023/02/26 08:48:31;;;;;;;68.18;44.55;;;;;;;9.40;100.00;99083.06;4987819;28;20456;-73
2023/02/26 08:50:56;;;;;;;73.30;46.90;;;;;;;9.39;100.00;99057.78;4982531;28;20788;-72
2023/02/26 08:53:22;;;;;;;71.47;43.78;;;;;;;10.37;100.00;99216.78;4985608;28;20291;-72
2023/02/26 08:55:49;;;;;;;70.05;43.90;;;;;;;9.65;100.00;99112.31;4987176;28;20058;-73
2023/02/26 08:58:15;;;;;;;66.78;41.58;;;;;;;10.31;100.00;99236.13;4984879;28;20083;-72
2023/02/26 09:00:40;;;;;;;74.05;48.17;;;;;;;10.59;100.00;99233.84;4985972;28;20425;-73
2023/02/26 09:03:05;;;;;;;68.88;42.92;;;;;;;9.92;100.00;99112.72;4985186;28;20030;-72
2023/02/26 09:05:31;;;;;;;71.85;47.58;;;;;;;10.80;100.00;99227.31;4983301;28;20503;-73
2023/02/26 09:07:56;;;;;;;70.95;47.80;;;;;;;10.69;100.00;99226.66;4984057;28;20538;-77
2023/02/26 09:10:22;;;;;;;81.05;47.45;;;;;;;10.35;100.00;99125.91;4977912;28;20058;-79
2023/02/26 09:12:47;;;;;;;66.38;46.70;;;;;;;11.06;100.00;99241.66;4983872;28;20052;-77
2023/02/26 09:15:13;;;;;;;70.68;48.40;;;;;;;11.10;100.00;99249.44;4985111;28;20030;-77
2023/02/26 09:17:40;;;;;;;72.07;47.17;;;;;;;10.73;100.00;99128.63;4984436;28;20495;-78
2023/02/26 09:20:06;;;;;;;67.13;45.15;;;;;;;11.41;100.00;99230.41;4982287;28;20050;-77
2023/02/26 09:22:34;;;;;;;65.57;44.88;;;;;;;11.67;100.00;99252.59;4984671;28;20474;-79
2023/02/26 09:24:59;;;;;;;69.97;46.42;;;;;;;11.17;100.00;99169.66;4982519;28;20133;-76
2023/02/26 09:27:25;;;;;;;68.03;46.95;;;;;;;11.64;100.00;99279.78;4981782;28;20081;-75
2023/02/26 09:29:51;;;;;;;75.97;49.35;;;;;;;10.99;100.00;99159.56;4972889;28;20089;-75
2023/02/26 09:32:16;;;;;;;75.00;47.38;;;;;;;11.91;100.00;99290.59;4981472;28;20507;-78
2023/02/26 09:34:41;;;;;;;82.15;49.95;;;;;;;11.22;100.00;99182.69;4980720;28;20134;-77
2023/02/26 09:37:08;;;;;;;73.72;45.80;;;;;;;11.51;100.00;99208.25;4980306;28;20633;-76
2023/02/26 09:39:35;;;;;;;73.53;47.47;;;;;;;11.60;100.00;99213.31;4981969;28;20124;-77
2023/02/26 09:42:31;;;;;;;86.35;46.25;;;;;;;12.41;100.00;99320.94;4969159;28;20380;-77
2023/02/26 09:44:58;;;;;;;77.40;47.25;;;;;;;12.56;100.00;99321.44;4978493;28;20050;-74
2023/02/26 09:47:38;;;;;;;63.47;45.30;;;;;;;11.89;100.00;99187.25;4977204;28;20065;-74
2023/02/26 09:50:09;;;;;;;72.63;41.13;;;;;;;12.89;100.00;99324.94;4972023;28;20110;-75
2023/02/26 09:53:00;;;;;;;68.97;42.88;;;;;;;13.14;100.00;99338.31;4987185;28;20049;-74
2023/02/26 09:55:46;;;;;;;72.38;45.45;;;;;;;13.06;100.00;99335.00;4981045;28;20054;-77
2023/02/26 09:58:36;;;;;;;73.00;45.15;;;;;;;13.38;100.00;99336.78;5003551;28;20141;-80
2023/02/26 10:01:10;;;;;;;72.13;43.33;;;;;;;12.89;100.00;99222.25;4997898;28;20060;-77
2023/02/26 10:03:55;;;;;;;86.90;45.20;;;;;;;13.63;100.00;99352.75;5000086;28;20041;-78
2023/02/26 10:06:33;;;;;;;64.63;43.58;;;;;;;13.82;100.00;99353.06;4995973;28;20045;-78
2023/02/26 10:09:33;;;;;;;54.72;39.22;;;;;;;14.20;100.00;99358.91;4986015;28;20498;-77
2023/02/26 10:12:09;;;;;;;59.72;39.30;;;;;;;13.56;100.00;99240.50;4978240;28;20048;-79
2023/02/26 10:14:37;;;;;;;55.17;33.55;;;;;;;14.39;100.00;99276.50;4981367;28;20479;-81
2023/02/26 10:17:18;;;;;;;71.32;35.70;;;;;;;15.20;100.00;99363.50;4973493;28;20057;-77
2023/02/26 10:19:50;;;;;;;51.67;27.83;;;;;;;15.31;100.00;99349.88;4983043;28;20065;-82
2023/02/26 10:22:24;;;;;;;39.97;13.93;;;;;;;16.30;100.00;99280.84;4981833;28;20144;-77
2023/02/26 10:24:58;;;;;;;23.13;8.30;;;;;;;17.32;100.00;99365.63;4984294;28;20557;-77
2023/02/26 10:27:52;;;;;;;40.22;9.68;;;;;;;17.60;100.00;99348.47;4976808;28;20126;-78
2023/02/26 10:30:41;;;;;;;22.63;7.07;;;;;;;17.87;97.61;99354.34;4978874;28;20053;-78
2023/02/26 10:33:35;;;;;;;23.75;7.82;;;;;;;18.19;90.57;99344.84;4981538;28;20168;-78
2023/02/26 10:36:15;;;;;;;20.95;6.50;;;;;;;18.24;87.32;99356.09;5002883;28;20103;-78
2023/02/26 10:38:42;;;;;;;31.38;7.90;;;;;;;17.55;82.77;99205.44;4998843;28;20050;-78
2023/02/26 10:41:19;;;;;;;29.30;6.90;;;;;;;18.43;79.92;99348.09;4994080;28;20042;-77
2023/02/26 10:44:05;;;;;;;32.90;7.30;;;;;;;18.57;77.77;99342.09;5003960;28;20141;-77
2023/02/26 10:46:34;;;;;;;23.00;6.90;;;;;;;18.66;74.45;99340.75;4992003;28;20046;-77
2023/02/26 10:49:13;;;;;;;25.38;8.35;;;;;;;18.87;72.66;99345.03;5007465;28;20492;-77
2023/02/26 10:51:39;;;;;;;29.35;6.95;;;;;;;18.31;71.10;99230.03;5006246;28;20467;-77
2023/02/26 10:54:30;;;;;;;22.83;6.40;;;;;;;18.93;66.75;99336.72;5009693;28;20042;-79
2023/02/26 10:56:55;;;;;;;30.05;7.68;;;;;;;18.63;66.02;99285.09;5002706;28;20034;-80
2023/02/26 10:59:22;;;;;;;22.10;6.68;;;;;;;18.60;67.92;99261.34;5003577;28;20042;-77
2023/02/26 11:01:49;;;;;;;12.68;6.28;;;;;;;18.96;64.85;99323.28;5001555;28;20038;-77
2023/02/26 11:04:22;;;;;;;30.65;7.68;;;;;;;18.69;63.01;99268.84;5000493;28;20042;-77
2023/02/26 11:06:53;;;;;;;28.37;6.27;;;;;;;19.13;62.68;99327.72;5012713;28;20065;-77
2023/02/26 11:09:21;;;;;;;17.10;6.00;;;;;;;19.08;62.00;99326.22;4994888;28;21074;-77
2023/02/26 11:11:53;;;;;;;33.83;8.75;;;;;;;19.25;62.04;99343.97;4987836;28;20064;-78
2023/02/26 11:14:19;;;;;;;27.30;6.20;;;;;;;18.79;61.58;99243.53;4983051;28;20030;-79
2023/02/26 11:17:00;;;;;;;27.42;7.57;;;;;;;19.22;60.93;99334.31;4980404;28;20041;-84
2023/02/26 11:19:34;;;;;;;34.13;6.38;;;;;;;19.09;61.27;99307.53;4989187;28;20474;-76
2023/02/26 11:22:02;;;;;;;23.55;6.38;;;;;;;18.45;61.64;99210.75;4992208;28;20042;-77
2023/02/26 11:24:35;;;;;;;29.55;7.15;;;;;;;18.62;62.21;99212.50;4986765;28;20034;-79
2023/02/26 11:27:03;;;;;;;18.00;8.48;;;;;;;18.52;61.97;99209.47;4978812;28;20497;-77
2023/02/26 11:29:37;;;;;;;23.38;6.90;;;;;;;19.26;62.85;99317.25;4990636;28;20118;-79
2023/02/26 11:32:03;;;;;;;25.67;7.20;;;;;;;19.06;61.55;99313.00;4987835;28;20104;-79